sensor_id;sensor_type;location;lat;lon;timestamp;P1;durP1;ratioP1;P2;durP2;ratioP2
25327;SDS011;13279;51.300;12.394;2024-01-30T00:01:59;6.60;;;4.27;;
25327;SDS011;13279;51.300;12.394;2024-01-30T00:04:27;9.67;;;3.93;;
25327;SDS011;13279;51.300;12.394;2024-01-30T00:06:55;5.07;;;3.60;;
25327;SDS011;13279;51.300;12.394;2024-01-30T00:09:23;6.93;;;4.07;;
25327;SDS011;13279;51.300;12.394;2024-01-30T00:11:50;12.97;;;4.17;;
25327;SDS011;13279;51.300;12.394;2024-01-30T00:14:18;4.87;;;3.53;;
25327;SDS011;13279;51.300;12.394;2024-01-30T00:16:45;6.07;;;3.63;;
25327;SDS011;13279;51.300;12.394;2024-01-30T00:19:13;6.40;;;3.50;;
25327;SDS011;13279;51.300;12.394;2024-01-30T00:21:40;8.83;;;3.97;;
25327;SDS011;13279;51.300;12.394;2024-01-30T00:24:09;5.53;;;3.10;;
25327;SDS011;13279;51.300;12.394;2024-01-30T00:26:36;6.27;;;3.77;;
25327;SDS011;13279;51.300;12.394;2024-01-30T00:29:03;6.57;;;3.47;;
25327;SDS011;13279;51.300;12.394;2024-01-30T00:31:31;7.17;;;4.00;;
25327;SDS011;13279;51.300;12.394;2024-01-30T00:33:58;7.67;;;4.63;;
25327;SDS011;13279;51.300;12.394;2024-01-30T00:36:26;6.27;;;3.23;;
25327;SDS011;13279;51.300;12.394;2024-01-30T00:38:55;5.73;;;3.23;;
25327;SDS011;13279;51.300;12.394;2024-01-30T00:41:24;6.47;;;3.40;;
25327;SDS011;13279;51.300;12.394;2024-01-30T00:43:52;6.67;;;3.27;;
25327;SDS011;13279;51.300;12.394;2024-01-30T00:46:19;6.00;;;3.10;;
25327;SDS011;13279;51.300;12.394;2024-01-30T00:48:47;7.23;;;3.20;;
25327;SDS011;13279;51.300;12.394;2024-01-30T00:51:14;6.07;;;3.20;;
25327;SDS011;13279;51.300;12.394;2024-01-30T00:53:42;8.57;;;3.67;;
25327;SDS011;13279;51.300;12.394;2024-01-30T00:56:09;7.53;;;3.80;;
25327;SDS011;13279;51.300;12.394;2024-01-30T00:58:38;12.77;;;3.60;;
25327;SDS011;13279;51.300;12.394;2024-01-30T01:01:05;7.57;;;3.47;;
25327;SDS011;13279;51.300;12.394;2024-01-30T01:03:34;5.90;;;3.63;;
25327;SDS011;13279;51.300;12.394;2024-01-30T01:06:01;5.97;;;3.50;;
25327;SDS011;13279;51.300;12.394;2024-01-30T01:08:29;7.07;;;3.50;;
25327;SDS011;13279;51.300;12.394;2024-01-30T01:10:56;9.57;;;5.57;;
25327;SDS011;13279;51.300;12.394;2024-01-30T01:13:24;5.73;;;3.60;;
25327;SDS011;13279;51.300;12.394;2024-01-30T01:15:52;8.60;;;4.00;;
25327;SDS011;13279;51.300;12.394;2024-01-30T01:18:20;5.00;;;3.40;;
25327;SDS011;13279;51.300;12.394;2024-01-30T01:20:47;7.87;;;3.63;;
25327;SDS011;13279;51.300;12.394;2024-01-30T01:23:15;6.63;;;3.70;;
25327;SDS011;13279;51.300;12.394;2024-01-30T01:25:42;7.57;;;3.80;;
25327;SDS011;13279;51.300;12.394;2024-01-30T01:28:10;7.60;;;3.20;;
25327;SDS011;13279;51.300;12.394;2024-01-30T01:30:37;5.43;;;3.90;;
25327;SDS011;13279;51.300;12.394;2024-01-30T01:33:06;8.77;;;3.97;;
25327;SDS011;13279;51.300;12.394;2024-01-30T01:35:34;6.27;;;3.90;;
25327;SDS011;13279;51.300;12.394;2024-01-30T01:38:02;5.60;;;3.23;;
25327;SDS011;13279;51.300;12.394;2024-01-30T01:40:29;7.17;;;4.07;;
25327;SDS011;13279;51.300;12.394;2024-01-30T01:42:57;12.07;;;4.77;;
25327;SDS011;13279;51.300;12.394;2024-01-30T01:45:24;6.13;;;4.10;;
25327;SDS011;13279;51.300;12.394;2024-01-30T01:47:52;7.10;;;4.57;;
25327;SDS011;13279;51.300;12.394;2024-01-30T01:50:21;8.30;;;3.97;;
25327;SDS011;13279;51.300;12.394;2024-01-30T01:52:50;9.40;;;3.37;;
25327;SDS011;13279;51.300;12.394;2024-01-30T01:55:18;7.33;;;3.00;;
25327;SDS011;13279;51.300;12.394;2024-01-30T01:57:49;11.33;;;5.00;;
25327;SDS011;13279;51.300;12.394;2024-01-30T02:00:18;8.87;;;4.20;;
25327;SDS011;13279;51.300;12.394;2024-01-30T02:02:47;7.73;;;4.03;;
25327;SDS011;13279;51.300;12.394;2024-01-30T02:05:14;6.80;;;3.80;;
25327;SDS011;13279;51.300;12.394;2024-01-30T02:07:43;8.67;;;4.27;;
25327;SDS011;13279;51.300;12.394;2024-01-30T02:10:11;7.00;;;4.30;;
25327;SDS011;13279;51.300;12.394;2024-01-30T02:12:38;6.23;;;4.20;;
25327;SDS011;13279;51.300;12.394;2024-01-30T02:15:06;7.37;;;4.07;;
25327;SDS011;13279;51.300;12.394;2024-01-30T02:17:34;5.23;;;3.80;;
25327;SDS011;13279;51.300;12.394;2024-01-30T02:20:01;8.37;;;4.00;;
25327;SDS011;13279;51.300;12.394;2024-01-30T02:22:32;6.97;;;3.93;;
25327;SDS011;13279;51.300;12.394;2024-01-30T02:25:01;7.77;;;3.50;;
25327;SDS011;13279;51.300;12.394;2024-01-30T02:27:29;6.93;;;4.50;;
25327;SDS011;13279;51.300;12.394;2024-01-30T02:29:56;7.80;;;4.63;;
25327;SDS011;13279;51.300;12.394;2024-01-30T02:32:24;6.80;;;3.97;;
25327;SDS011;13279;51.300;12.394;2024-01-30T02:34:51;10.27;;;5.20;;
25327;SDS011;13279;51.300;12.394;2024-01-30T02:37:18;8.40;;;4.63;;
25327;SDS011;13279;51.300;12.394;2024-01-30T02:39:47;8.57;;;4.23;;
25327;SDS011;13279;51.300;12.394;2024-01-30T02:42:14;6.20;;;4.00;;
25327;SDS011;13279;51.300;12.394;2024-01-30T02:44:42;8.23;;;4.47;;
25327;SDS011;13279;51.300;12.394;2024-01-30T02:47:09;9.10;;;4.17;;
25327;SDS011;13279;51.300;12.394;2024-01-30T02:49:37;9.43;;;4.23;;
25327;SDS011;13279;51.300;12.394;2024-01-30T02:52:04;8.60;;;4.33;;
25327;SDS011;13279;51.300;12.394;2024-01-30T02:54:32;7.33;;;4.40;;
25327;SDS011;13279;51.300;12.394;2024-01-30T02:57:01;8.03;;;3.73;;
25327;SDS011;13279;51.300;12.394;2024-01-30T02:59:28;6.00;;;3.93;;
25327;SDS011;13279;51.300;12.394;2024-01-30T03:01:59;7.20;;;4.23;;
25327;SDS011;13279;51.300;12.394;2024-01-30T03:04:26;7.40;;;4.17;;
25327;SDS011;13279;51.300;12.394;2024-01-30T03:06:55;6.67;;;3.70;;
25327;SDS011;13279;51.300;12.394;2024-01-30T03:09:22;7.27;;;3.80;;
25327;SDS011;13279;51.300;12.394;2024-01-30T03:11:50;6.90;;;3.70;;
25327;SDS011;13279;51.300;12.394;2024-01-30T03:14:18;7.53;;;3.77;;
25327;SDS011;13279;51.300;12.394;2024-01-30T03:16:46;12.67;;;4.47;;
25327;SDS011;13279;51.300;12.394;2024-01-30T03:19:13;7.63;;;3.67;;
25327;SDS011;13279;51.300;12.394;2024-01-30T03:21:41;11.43;;;3.83;;
25327;SDS011;13279;51.300;12.394;2024-01-30T03:24:08;11.30;;;4.50;;
25327;SDS011;13279;51.300;12.394;2024-01-30T03:26:36;7.50;;;4.43;;
25327;SDS011;13279;51.300;12.394;2024-01-30T03:29:03;10.40;;;4.00;;
25327;SDS011;13279;51.300;12.394;2024-01-30T03:31:32;8.00;;;3.73;;
25327;SDS011;13279;51.300;12.394;2024-01-30T03:33:59;7.87;;;3.70;;
25327;SDS011;13279;51.300;12.394;2024-01-30T03:36:28;6.80;;;4.20;;
25327;SDS011;13279;51.300;12.394;2024-01-30T03:38:58;8.17;;;4.03;;
25327;SDS011;13279;51.300;12.394;2024-01-30T03:41:25;8.37;;;4.17;;
25327;SDS011;13279;51.300;12.394;2024-01-30T03:43:53;6.77;;;3.83;;
25327;SDS011;13279;51.300;12.394;2024-01-30T03:46:20;8.30;;;3.97;;
25327;SDS011;13279;51.300;12.394;2024-01-30T03:48:49;10.37;;;3.80;;
25327;SDS011;13279;51.300;12.394;2024-01-30T03:51:17;13.43;;;4.07;;
25327;SDS011;13279;51.300;12.394;2024-01-30T03:53:44;7.50;;;4.27;;
25327;SDS011;13279;51.300;12.394;2024-01-30T03:56:12;6.37;;;4.37;;
25327;SDS011;13279;51.300;12.394;2024-01-30T03:58:40;8.73;;;4.40;;
25327;SDS011;13279;51.300;12.394;2024-01-30T04:01:07;5.63;;;3.87;;
25327;SDS011;13279;51.300;12.394;2024-01-30T04:03:39;9.97;;;4.00;;
25327;SDS011;13279;51.300;12.394;2024-01-30T04:06:08;7.20;;;3.67;;
25327;SDS011;13279;51.300;12.394;2024-01-30T04:08:37;9.37;;;4.23;;
25327;SDS011;13279;51.300;12.394;2024-01-30T04:11:04;10.70;;;4.07;;
25327;SDS011;13279;51.300;12.394;2024-01-30T04:13:32;5.43;;;3.73;;
25327;SDS011;13279;51.300;12.394;2024-01-30T04:15:59;6.77;;;4.40;;
25327;SDS011;13279;51.300;12.394;2024-01-30T04:18:28;7.40;;;3.90;;
25327;SDS011;13279;51.300;12.394;2024-01-30T04:20:55;7.53;;;3.53;;
25327;SDS011;13279;51.300;12.394;2024-01-30T04:23:24;7.63;;;3.57;;
25327;SDS011;13279;51.300;12.394;2024-01-30T04:25:51;8.40;;;4.70;;
25327;SDS011;13279;51.300;12.394;2024-01-30T04:28:19;9.53;;;3.93;;
25327;SDS011;13279;51.300;12.394;2024-01-30T04:30:46;6.73;;;3.87;;
25327;SDS011;13279;51.300;12.394;2024-01-30T04:33:14;5.77;;;3.73;;
25327;SDS011;13279;51.300;12.394;2024-01-30T04:35:43;6.97;;;3.80;;
25327;SDS011;13279;51.300;12.394;2024-01-30T04:38:10;9.03;;;3.83;;
25327;SDS011;13279;51.300;12.394;2024-01-30T04:40:40;7.33;;;3.43;;
25327;SDS011;13279;51.300;12.394;2024-01-30T04:43:08;13.03;;;4.17;;
25327;SDS011;13279;51.300;12.394;2024-01-30T04:45:35;6.03;;;3.73;;
25327;SDS011;13279;51.300;12.394;2024-01-30T04:48:02;8.00;;;3.80;;
25327;SDS011;13279;51.300;12.394;2024-01-30T04:50:30;14.97;;;3.90;;
25327;SDS011;13279;51.300;12.394;2024-01-30T04:52:57;7.83;;;4.17;;
25327;SDS011;13279;51.300;12.394;2024-01-30T04:55:24;7.63;;;4.00;;
25327;SDS011;13279;51.300;12.394;2024-01-30T04:57:53;6.20;;;3.80;;
25327;SDS011;13279;51.300;12.394;2024-01-30T05:00:21;12.03;;;4.10;;
25327;SDS011;13279;51.300;12.394;2024-01-30T05:02:48;13.00;;;4.00;;
25327;SDS011;13279;51.300;12.394;2024-01-30T05:05:15;9.63;;;4.10;;
25327;SDS011;13279;51.300;12.394;2024-01-30T05:07:43;11.50;;;4.33;;
25327;SDS011;13279;51.300;12.394;2024-01-30T05:10:10;6.83;;;3.50;;
25327;SDS011;13279;51.300;12.394;2024-01-30T05:12:38;8.30;;;3.90;;
25327;SDS011;13279;51.300;12.394;2024-01-30T05:15:07;8.70;;;4.50;;
25327;SDS011;13279;51.300;12.394;2024-01-30T05:17:35;7.70;;;4.03;;
25327;SDS011;13279;51.300;12.394;2024-01-30T05:20:03;9.03;;;4.23;;
25327;SDS011;13279;51.300;12.394;2024-01-30T05:22:31;8.47;;;4.37;;
25327;SDS011;13279;51.300;12.394;2024-01-30T05:24:59;7.67;;;4.30;;
25327;SDS011;13279;51.300;12.394;2024-01-30T05:27:26;8.50;;;4.53;;
25327;SDS011;13279;51.300;12.394;2024-01-30T05:29:53;9.50;;;4.80;;
25327;SDS011;13279;51.300;12.394;2024-01-30T05:32:22;8.80;;;4.13;;
25327;SDS011;13279;51.300;12.394;2024-01-30T05:34:49;7.70;;;3.73;;
25327;SDS011;13279;51.300;12.394;2024-01-30T05:37:17;7.63;;;4.13;;
25327;SDS011;13279;51.300;12.394;2024-01-30T05:39:44;8.10;;;3.83;;
25327;SDS011;13279;51.300;12.394;2024-01-30T05:42:11;13.37;;;6.20;;
25327;SDS011;13279;51.300;12.394;2024-01-30T05:44:40;10.37;;;4.40;;
25327;SDS011;13279;51.300;12.394;2024-01-30T05:47:07;9.07;;;4.10;;
25327;SDS011;13279;51.300;12.394;2024-01-30T05:49:36;10.53;;;4.50;;
25327;SDS011;13279;51.300;12.394;2024-01-30T05:52:05;10.10;;;4.17;;
25327;SDS011;13279;51.300;12.394;2024-01-30T05:54:32;7.03;;;3.80;;
25327;SDS011;13279;51.300;12.394;2024-01-30T05:57:00;7.13;;;3.90;;
25327;SDS011;13279;51.300;12.394;2024-01-30T05:59:27;8.63;;;4.20;;
25327;SDS011;13279;51.300;12.394;2024-01-30T06:01:55;5.93;;;3.73;;
25327;SDS011;13279;51.300;12.394;2024-01-30T06:04:22;7.00;;;4.17;;
25327;SDS011;13279;51.300;12.394;2024-01-30T06:06:52;9.70;;;4.07;;
25327;SDS011;13279;51.300;12.394;2024-01-30T06:09:19;12.17;;;4.50;;
25327;SDS011;13279;51.300;12.394;2024-01-30T06:11:46;8.17;;;4.47;;
25327;SDS011;13279;51.300;12.394;2024-01-30T06:14:14;11.40;;;4.40;;
25327;SDS011;13279;51.300;12.394;2024-01-30T06:16:41;12.07;;;4.63;;
25327;SDS011;13279;51.300;12.394;2024-01-30T06:19:09;9.60;;;4.37;;
25327;SDS011;13279;51.300;12.394;2024-01-30T06:21:36;9.90;;;4.40;;
25327;SDS011;13279;51.300;12.394;2024-01-30T06:24:05;8.43;;;4.60;;
25327;SDS011;13279;51.300;12.394;2024-01-30T06:26:33;7.97;;;4.50;;
25327;SDS011;13279;51.300;12.394;2024-01-30T06:29:01;8.67;;;3.87;;
25327;SDS011;13279;51.300;12.394;2024-01-30T06:31:28;7.17;;;3.80;;
25327;SDS011;13279;51.300;12.394;2024-01-30T06:33:56;7.17;;;4.37;;
25327;SDS011;13279;51.300;12.394;2024-01-30T06:36:23;7.33;;;4.27;;
25327;SDS011;13279;51.300;12.394;2024-01-30T06:38:51;7.77;;;4.87;;
25327;SDS011;13279;51.300;12.394;2024-01-30T06:41:20;11.33;;;4.03;;
25327;SDS011;13279;51.300;12.394;2024-01-30T06:43:47;8.77;;;4.97;;
25327;SDS011;13279;51.300;12.394;2024-01-30T06:46:15;15.87;;;4.57;;
25327;SDS011;13279;51.300;12.394;2024-01-30T06:48:42;8.80;;;4.37;;
25327;SDS011;13279;51.300;12.394;2024-01-30T06:51:10;7.93;;;4.70;;
25327;SDS011;13279;51.300;12.394;2024-01-30T06:53:38;8.70;;;4.03;;
25327;SDS011;13279;51.300;12.394;2024-01-30T06:56:05;7.83;;;4.53;;
25327;SDS011;13279;51.300;12.394;2024-01-30T06:58:34;10.53;;;4.53;;
25327;SDS011;13279;51.300;12.394;2024-01-30T07:01:02;9.13;;;4.10;;
25327;SDS011;13279;51.300;12.394;2024-01-30T07:03:29;9.70;;;4.10;;
25327;SDS011;13279;51.300;12.394;2024-01-30T07:05:57;7.33;;;4.30;;
25327;SDS011;13279;51.300;12.394;2024-01-30T07:08:24;7.53;;;4.43;;
25327;SDS011;13279;51.300;12.394;2024-01-30T07:10:51;6.50;;;4.37;;
25327;SDS011;13279;51.300;12.394;2024-01-30T07:13:20;8.03;;;4.30;;
25327;SDS011;13279;51.300;12.394;2024-01-30T07:15:49;11.17;;;4.57;;
25327;SDS011;13279;51.300;12.394;2024-01-30T07:18:16;8.70;;;4.50;;
25327;SDS011;13279;51.300;12.394;2024-01-30T07:20:44;7.33;;;3.90;;
25327;SDS011;13279;51.300;12.394;2024-01-30T07:23:12;7.37;;;4.17;;
25327;SDS011;13279;51.300;12.394;2024-01-30T07:25:42;12.27;;;5.20;;
25327;SDS011;13279;51.300;12.394;2024-01-30T07:28:10;9.20;;;4.37;;
25327;SDS011;13279;51.300;12.394;2024-01-30T07:30:38;12.13;;;4.63;;
25327;SDS011;13279;51.300;12.394;2024-01-30T07:33:06;11.67;;;4.57;;
25327;SDS011;13279;51.300;12.394;2024-01-30T07:35:34;7.33;;;4.30;;
25327;SDS011;13279;51.300;12.394;2024-01-30T07:38:01;9.27;;;4.83;;
25327;SDS011;13279;51.300;12.394;2024-01-30T07:40:28;5.63;;;3.27;;
25327;SDS011;13279;51.300;12.394;2024-01-30T07:42:56;7.43;;;4.00;;
25327;SDS011;13279;51.300;12.394;2024-01-30T07:45:23;11.30;;;4.60;;
25327;SDS011;13279;51.300;12.394;2024-01-30T07:47:52;18.30;;;4.57;;
25327;SDS011;13279;51.300;12.394;2024-01-30T07:50:21;13.90;;;4.00;;
25327;SDS011;13279;51.300;12.394;2024-01-30T07:52:49;7.17;;;4.40;;
25327;SDS011;13279;51.300;12.394;2024-01-30T07:55:19;8.77;;;4.37;;
25327;SDS011;13279;51.300;12.394;2024-01-30T07:57:50;7.07;;;4.20;;
25327;SDS011;13279;51.300;12.394;2024-01-30T08:00:18;6.90;;;4.17;;
25327;SDS011;13279;51.300;12.394;2024-01-30T08:02:52;9.63;;;4.47;;
25327;SDS011;13279;51.300;12.394;2024-01-30T08:05:22;18.30;;;5.40;;
25327;SDS011;13279;51.300;12.394;2024-01-30T08:07:50;10.57;;;4.50;;
25327;SDS011;13279;51.300;12.394;2024-01-30T08:10:17;10.30;;;4.70;;
25327;SDS011;13279;51.300;12.394;2024-01-30T08:12:44;11.93;;;4.90;;
25327;SDS011;13279;51.300;12.394;2024-01-30T08:15:12;12.77;;;3.80;;
25327;SDS011;13279;51.300;12.394;2024-01-30T08:17:39;7.93;;;4.67;;
25327;SDS011;13279;51.300;12.394;2024-01-30T08:20:07;9.37;;;4.90;;
25327;SDS011;13279;51.300;12.394;2024-01-30T08:22:37;13.83;;;5.30;;
25327;SDS011;13279;51.300;12.394;2024-01-30T08:25:06;6.50;;;4.87;;
25327;SDS011;13279;51.300;12.394;2024-01-30T08:27:35;8.57;;;4.50;;
25327;SDS011;13279;51.300;12.394;2024-01-30T08:30:04;11.60;;;5.20;;
25327;SDS011;13279;51.300;12.394;2024-01-30T08:32:32;10.27;;;4.93;;
25327;SDS011;13279;51.300;12.394;2024-01-30T08:35:00;8.83;;;4.50;;
25327;SDS011;13279;51.300;12.394;2024-01-30T08:37:29;16.30;;;4.87;;
25327;SDS011;13279;51.300;12.394;2024-01-30T08:40:00;14.00;;;4.90;;
25327;SDS011;13279;51.300;12.394;2024-01-30T08:42:29;7.53;;;4.23;;
25327;SDS011;13279;51.300;12.394;2024-01-30T08:44:56;9.43;;;4.47;;
25327;SDS011;13279;51.300;12.394;2024-01-30T08:47:23;9.10;;;4.67;;
25327;SDS011;13279;51.300;12.394;2024-01-30T08:49:51;9.07;;;4.73;;
25327;SDS011;13279;51.300;12.394;2024-01-30T08:52:18;9.90;;;4.73;;
25327;SDS011;13279;51.300;12.394;2024-01-30T08:54:45;16.07;;;5.53;;
25327;SDS011;13279;51.300;12.394;2024-01-30T08:57:14;10.90;;;5.33;;
25327;SDS011;13279;51.300;12.394;2024-01-30T08:59:41;8.33;;;4.37;;
25327;SDS011;13279;51.300;12.394;2024-01-30T09:02:11;8.07;;;4.63;;
25327;SDS011;13279;51.300;12.394;2024-01-30T09:04:38;9.83;;;5.13;;
25327;SDS011;13279;51.300;12.394;2024-01-30T09:07:06;11.10;;;4.83;;
25327;SDS011;13279;51.300;12.394;2024-01-30T09:09:34;9.30;;;4.23;;
25327;SDS011;13279;51.300;12.394;2024-01-30T09:12:02;7.87;;;4.70;;
25327;SDS011;13279;51.300;12.394;2024-01-30T09:14:34;11.83;;;4.87;;
25327;SDS011;13279;51.300;12.394;2024-01-30T09:17:01;13.73;;;4.60;;
25327;SDS011;13279;51.300;12.394;2024-01-30T09:19:29;16.03;;;4.87;;
25327;SDS011;13279;51.300;12.394;2024-01-30T09:21:57;10.13;;;4.83;;
25327;SDS011;13279;51.300;12.394;2024-01-30T09:24:25;20.10;;;6.03;;
25327;SDS011;13279;51.300;12.394;2024-01-30T09:26:53;8.93;;;5.03;;
25327;SDS011;13279;51.300;12.394;2024-01-30T09:29:20;10.27;;;4.70;;
25327;SDS011;13279;51.300;12.394;2024-01-30T09:31:49;8.53;;;4.80;;
25327;SDS011;13279;51.300;12.394;2024-01-30T09:34:16;9.13;;;4.97;;
25327;SDS011;13279;51.300;12.394;2024-01-30T09:36:43;14.20;;;4.97;;
25327;SDS011;13279;51.300;12.394;2024-01-30T09:39:11;8.40;;;4.90;;
25327;SDS011;13279;51.300;12.394;2024-01-30T09:41:41;8.43;;;5.13;;
25327;SDS011;13279;51.300;12.394;2024-01-30T09:44:15;11.97;;;5.40;;
25327;SDS011;13279;51.300;12.394;2024-01-30T09:46:43;8.37;;;4.73;;
25327;SDS011;13279;51.300;12.394;2024-01-30T09:49:15;8.63;;;4.40;;
25327;SDS011;13279;51.300;12.394;2024-01-30T09:51:44;7.40;;;4.60;;
25327;SDS011;13279;51.300;12.394;2024-01-30T09:54:12;8.13;;;4.87;;
25327;SDS011;13279;51.300;12.394;2024-01-30T09:56:41;10.10;;;5.23;;
25327;SDS011;13279;51.300;12.394;2024-01-30T09:59:09;8.60;;;5.03;;
25327;SDS011;13279;51.300;12.394;2024-01-30T10:01:36;12.03;;;5.43;;
25327;SDS011;13279;51.300;12.394;2024-01-30T10:04:05;10.83;;;5.20;;
25327;SDS011;13279;51.300;12.394;2024-01-30T10:06:35;11.97;;;4.80;;
25327;SDS011;13279;51.300;12.394;2024-01-30T10:09:04;8.60;;;5.33;;
25327;SDS011;13279;51.300;12.394;2024-01-30T10:11:32;15.40;;;5.23;;
25327;SDS011;13279;51.300;12.394;2024-01-30T10:13:59;8.80;;;4.40;;
25327;SDS011;13279;51.300;12.394;2024-01-30T10:16:27;9.83;;;5.27;;
25327;SDS011;13279;51.300;12.394;2024-01-30T10:18:54;9.50;;;5.50;;
25327;SDS011;13279;51.300;12.394;2024-01-30T10:21:22;8.07;;;4.43;;
25327;SDS011;13279;51.300;12.394;2024-01-30T10:23:51;6.63;;;4.63;;
25327;SDS011;13279;51.300;12.394;2024-01-30T10:26:19;6.63;;;4.57;;
25327;SDS011;13279;51.300;12.394;2024-01-30T10:28:47;10.40;;;5.17;;
25327;SDS011;13279;51.300;12.394;2024-01-30T10:31:16;12.13;;;5.67;;
25327;SDS011;13279;51.300;12.394;2024-01-30T10:33:44;13.67;;;5.37;;
25327;SDS011;13279;51.300;12.394;2024-01-30T10:36:13;9.30;;;5.40;;
25327;SDS011;13279;51.300;12.394;2024-01-30T10:38:42;13.30;;;5.43;;
25327;SDS011;13279;51.300;12.394;2024-01-30T10:41:13;9.90;;;5.53;;
25327;SDS011;13279;51.300;12.394;2024-01-30T10:43:47;10.77;;;5.07;;
25327;SDS011;13279;51.300;12.394;2024-01-30T10:46:25;11.07;;;5.23;;
25327;SDS011;13279;51.300;12.394;2024-01-30T10:48:58;10.63;;;5.23;;
25327;SDS011;13279;51.300;12.394;2024-01-30T10:51:27;11.07;;;5.23;;
25327;SDS011;13279;51.300;12.394;2024-01-30T10:53:55;10.37;;;5.27;;
25327;SDS011;13279;51.300;12.394;2024-01-30T10:56:24;8.27;;;5.43;;
25327;SDS011;13279;51.300;12.394;2024-01-30T10:58:52;11.30;;;5.27;;
25327;SDS011;13279;51.300;12.394;2024-01-30T11:01:20;12.17;;;5.23;;
25327;SDS011;13279;51.300;12.394;2024-01-30T11:03:49;10.77;;;5.43;;
25327;SDS011;13279;51.300;12.394;2024-01-30T11:06:18;10.83;;;5.63;;
25327;SDS011;13279;51.300;12.394;2024-01-30T11:08:59;9.77;;;5.33;;
25327;SDS011;13279;51.300;12.394;2024-01-30T11:11:31;8.00;;;5.13;;
25327;SDS011;13279;51.300;12.394;2024-01-30T11:14:00;11.87;;;5.57;;
25327;SDS011;13279;51.300;12.394;2024-01-30T11:16:30;9.67;;;4.97;;
25327;SDS011;13279;51.300;12.394;2024-01-30T11:19:00;15.57;;;5.30;;
25327;SDS011;13279;51.300;12.394;2024-01-30T11:21:28;13.70;;;5.67;;
25327;SDS011;13279;51.300;12.394;2024-01-30T11:23:55;8.37;;;5.20;;
25327;SDS011;13279;51.300;12.394;2024-01-30T11:26:27;11.47;;;6.00;;
25327;SDS011;13279;51.300;12.394;2024-01-30T11:28:57;9.30;;;5.47;;
25327;SDS011;13279;51.300;12.394;2024-01-30T11:31:24;14.57;;;5.53;;
25327;SDS011;13279;51.300;12.394;2024-01-30T11:33:52;9.23;;;5.87;;
25327;SDS011;13279;51.300;12.394;2024-01-30T11:36:20;10.60;;;5.43;;
25327;SDS011;13279;51.300;12.394;2024-01-30T11:38:52;9.10;;;5.30;;
25327;SDS011;13279;51.300;12.394;2024-01-30T11:41:19;13.03;;;5.90;;
25327;SDS011;13279;51.300;12.394;2024-01-30T11:43:51;10.00;;;5.43;;
25327;SDS011;13279;51.300;12.394;2024-01-30T11:46:20;12.40;;;5.73;;
25327;SDS011;13279;51.300;12.394;2024-01-30T11:48:48;10.47;;;6.13;;
25327;SDS011;13279;51.300;12.394;2024-01-30T11:51:15;9.97;;;6.03;;
25327;SDS011;13279;51.300;12.394;2024-01-30T11:53:44;7.70;;;5.43;;
25327;SDS011;13279;51.300;12.394;2024-01-30T11:56:16;9.20;;;5.53;;
25327;SDS011;13279;51.300;12.394;2024-01-30T11:58:43;9.97;;;5.17;;
25327;SDS011;13279;51.300;12.394;2024-01-30T12:01:11;10.37;;;5.73;;
25327;SDS011;13279;51.300;12.394;2024-01-30T12:03:39;8.57;;;5.63;;
25327;SDS011;13279;51.300;12.394;2024-01-30T12:06:15;12.97;;;5.97;;
25327;SDS011;13279;51.300;12.394;2024-01-30T12:08:43;11.93;;;5.40;;
25327;SDS011;13279;51.300;12.394;2024-01-30T12:11:21;10.47;;;5.77;;
25327;SDS011;13279;51.300;12.394;2024-01-30T12:13:48;9.37;;;5.73;;
25327;SDS011;13279;51.300;12.394;2024-01-30T12:16:17;13.63;;;5.67;;
25327;SDS011;13279;51.300;12.394;2024-01-30T12:18:46;13.17;;;5.40;;
25327;SDS011;13279;51.300;12.394;2024-01-30T12:21:15;8.63;;;5.17;;
25327;SDS011;13279;51.300;12.394;2024-01-30T12:23:43;13.83;;;6.30;;
25327;SDS011;13279;51.300;12.394;2024-01-30T12:26:11;8.37;;;5.10;;
25327;SDS011;13279;51.300;12.394;2024-01-30T12:28:47;8.73;;;5.30;;
25327;SDS011;13279;51.300;12.394;2024-01-30T12:31:15;9.67;;;5.93;;
25327;SDS011;13279;51.300;12.394;2024-01-30T12:33:43;10.30;;;5.43;;
25327;SDS011;13279;51.300;12.394;2024-01-30T12:36:12;9.10;;;5.17;;
25327;SDS011;13279;51.300;12.394;2024-01-30T12:38:39;8.17;;;5.43;;
25327;SDS011;13279;51.300;12.394;2024-01-30T12:41:07;6.37;;;4.70;;
25327;SDS011;13279;51.300;12.394;2024-01-30T12:43:35;8.20;;;4.60;;
25327;SDS011;13279;51.300;12.394;2024-01-30T12:46:02;7.93;;;4.60;;
25327;SDS011;13279;51.300;12.394;2024-01-30T12:48:30;7.03;;;4.90;;
25327;SDS011;13279;51.300;12.394;2024-01-30T12:50:57;11.03;;;4.90;;
25327;SDS011;13279;51.300;12.394;2024-01-30T12:53:26;9.70;;;5.03;;
25327;SDS011;13279;51.300;12.394;2024-01-30T12:55:54;10.07;;;5.13;;
25327;SDS011;13279;51.300;12.394;2024-01-30T12:58:21;8.07;;;5.00;;
25327;SDS011;13279;51.300;12.394;2024-01-30T13:00:48;8.57;;;4.80;;
25327;SDS011;13279;51.300;12.394;2024-01-30T13:03:15;10.03;;;5.47;;
25327;SDS011;13279;51.300;12.394;2024-01-30T13:05:43;8.33;;;5.03;;
25327;SDS011;13279;51.300;12.394;2024-01-30T13:08:10;10.70;;;5.50;;
25327;SDS011;13279;51.300;12.394;2024-01-30T13:10:39;8.30;;;5.37;;
25327;SDS011;13279;51.300;12.394;2024-01-30T13:13:07;8.33;;;4.83;;
25327;SDS011;13279;51.300;12.394;2024-01-30T13:15:34;8.53;;;4.93;;
25327;SDS011;13279;51.300;12.394;2024-01-30T13:18:02;11.70;;;6.13;;
25327;SDS011;13279;51.300;12.394;2024-01-30T13:20:36;7.67;;;4.57;;
25327;SDS011;13279;51.300;12.394;2024-01-30T13:23:08;9.17;;;4.87;;
25327;SDS011;13279;51.300;12.394;2024-01-30T13:25:35;10.40;;;4.83;;
25327;SDS011;13279;51.300;12.394;2024-01-30T13:28:04;8.17;;;5.53;;
25327;SDS011;13279;51.300;12.394;2024-01-30T13:30:32;12.90;;;5.10;;
25327;SDS011;13279;51.300;12.394;2024-01-30T13:32:59;10.03;;;5.83;;
25327;SDS011;13279;51.300;12.394;2024-01-30T13:35:28;8.60;;;5.33;;
25327;SDS011;13279;51.300;12.394;2024-01-30T13:37:55;13.13;;;5.20;;
25327;SDS011;13279;51.300;12.394;2024-01-30T13:40:23;9.87;;;5.30;;
25327;SDS011;13279;51.300;12.394;2024-01-30T13:42:50;9.63;;;5.53;;
25327;SDS011;13279;51.300;12.394;2024-01-30T13:45:19;10.23;;;5.20;;
25327;SDS011;13279;51.300;12.394;2024-01-30T13:47:47;8.50;;;4.80;;
25327;SDS011;13279;51.300;12.394;2024-01-30T13:50:14;9.37;;;5.33;;
25327;SDS011;13279;51.300;12.394;2024-01-30T13:52:42;10.80;;;5.27;;
25327;SDS011;13279;51.300;12.394;2024-01-30T13:55:10;9.40;;;5.80;;
25327;SDS011;13279;51.300;12.394;2024-01-30T13:57:38;7.53;;;5.00;;
25327;SDS011;13279;51.300;12.394;2024-01-30T14:00:07;10.40;;;4.93;;
25327;SDS011;13279;51.300;12.394;2024-01-30T14:02:45;14.10;;;5.37;;
25327;SDS011;13279;51.300;12.394;2024-01-30T14:05:13;8.47;;;4.97;;
25327;SDS011;13279;51.300;12.394;2024-01-30T14:07:40;12.13;;;5.33;;
25327;SDS011;13279;51.300;12.394;2024-01-30T14:10:09;11.40;;;5.60;;
25327;SDS011;13279;51.300;12.394;2024-01-30T14:12:37;9.37;;;4.90;;
25327;SDS011;13279;51.300;12.394;2024-01-30T14:15:04;11.77;;;5.53;;
25327;SDS011;13279;51.300;12.394;2024-01-30T14:17:35;8.03;;;4.73;;
25327;SDS011;13279;51.300;12.394;2024-01-30T14:20:04;12.63;;;5.30;;
25327;SDS011;13279;51.300;12.394;2024-01-30T14:22:33;10.43;;;5.60;;
25327;SDS011;13279;51.300;12.394;2024-01-30T14:25:00;11.10;;;5.83;;
25327;SDS011;13279;51.300;12.394;2024-01-30T14:27:29;9.17;;;5.80;;
25327;SDS011;13279;51.300;12.394;2024-01-30T14:29:56;8.47;;;5.13;;
25327;SDS011;13279;51.300;12.394;2024-01-30T14:32:24;8.57;;;5.10;;
25327;SDS011;13279;51.300;12.394;2024-01-30T14:34:51;9.50;;;4.93;;
25327;SDS011;13279;51.300;12.394;2024-01-30T14:37:20;8.67;;;5.23;;